createdAt,value
2022-08-28T00:01:03.240Z,100301.72
2022-08-28T00:11:04.694Z,100291.25
2022-08-28T00:21:06.103Z,100298.66
2022-08-28T00:31:07.501Z,100299.75
2022-08-28T00:41:09.203Z,100305.47
2022-08-28T00:51:31.966Z,100296.25
2022-08-28T01:01:33.413Z,100307.66
2022-08-28T01:11:34.794Z,100300.63
2022-08-28T01:21:36.918Z,100302.91
2022-08-28T01:31:38.576Z,100305.66
2022-08-28T01:41:39.962Z,100312.16
2022-08-28T01:51:41.438Z,100305.84
2022-08-28T02:01:43.621Z,100312.00
2022-08-28T02:11:46.910Z,100316.94
2022-08-28T02:21:48.358Z,100310.06
2022-08-28T02:31:49.740Z,100316.00
2022-08-28T02:41:51.104Z,100311.09
2022-08-28T02:51:52.484Z,100312.91
2022-08-28T03:01:55.768Z,100304.19
2022-08-28T03:11:57.129Z,100298.88
2022-08-28T03:21:58.475Z,100302.44
2022-08-28T03:32:00.458Z,100305.31
2022-08-28T03:42:01.786Z,100311.28
2022-08-28T03:52:03.234Z,100312.88
2022-08-28T04:02:04.577Z,100319.91
2022-08-28T04:12:05.924Z,100326.19
2022-08-28T04:22:08.367Z,100322.19
2022-08-28T04:32:09.881Z,100330.97
2022-08-28T04:42:11.287Z,100327.66
2022-08-28T04:52:12.667Z,100341.06
2022-08-28T05:02:14.123Z,100343.41
2022-08-28T05:12:17.394Z,100348.69
2022-08-28T05:22:18.859Z,100350.59
2022-08-28T05:32:20.207Z,100365.00
2022-08-28T05:42:21.695Z,100366.03
2022-08-28T05:52:23.946Z,100372.75
2022-08-28T06:02:25.316Z,100378.44
2022-08-28T06:23:11.144Z,100383.34
2022-08-28T06:33:12.543Z,100384.03
2022-08-28T06:43:13.943Z,100394.78
2022-08-28T06:53:15.293Z,100402.81
2022-08-28T07:03:17.722Z,100400.47
2022-08-28T07:13:19.080Z,100411.75
2022-08-28T07:23:20.407Z,100427.38
2022-08-28T07:33:21.730Z,100429.50
2022-08-28T07:43:41.939Z,100432.88
2022-08-28T07:53:43.292Z,100434.97
2022-08-28T08:03:44.680Z,100446.19
2022-08-28T08:13:46.041Z,100454.63
2022-08-28T08:23:47.371Z,100456.66
2022-08-28T08:33:48.618Z,100455.41
2022-08-28T08:43:49.948Z,100462.53
2022-08-28T08:53:51.311Z,100473.78
2022-08-28T09:03:53.093Z,100479.47
2022-08-28T09:13:55.290Z,100482.13
2022-08-28T09:23:56.785Z,100481.22
2022-08-28T09:34:00.442Z,100487.69
2022-08-28T09:44:01.772Z,100495.50
2022-08-28T09:54:03.115Z,100484.63
2022-08-28T10:04:04.539Z,100486.94
2022-08-28T10:14:07.059Z,100490.63
2022-08-28T10:24:08.447Z,100490.16
2022-08-28T10:34:11.198Z,100485.09
2022-08-28T10:44:12.526Z,100472.69
2022-08-28T10:54:13.843Z,100472.66
2022-08-28T11:04:20.733Z,100471.41
2022-08-28T11:14:26.169Z,100469.28
2022-08-28T11:24:28.055Z,100474.97
2022-08-28T11:34:29.410Z,100462.22
2022-08-28T11:44:30.778Z,100469.81
2022-08-28T11:54:32.123Z,100464.13
2022-08-28T12:04:33.497Z,100460.59
2022-08-28T12:14:34.900Z,100463.78
2022-08-28T12:24:36.230Z,100446.81
2022-08-28T12:34:37.740Z,100434.28
2022-08-28T12:44:39.068Z,100438.88
2022-08-28T12:54:40.922Z,100430.78
2022-08-28T13:04:42.262Z,100425.56
2022-08-28T13:14:43.785Z,100410.75
2022-08-28T13:24:45.774Z,100403.69
2022-08-28T13:34:47.953Z,100399.53
2022-08-28T13:44:50.534Z,100394.94
2022-08-28T13:54:52.024Z,100386.25
2022-08-28T14:04:53.781Z,100383.09
2022-08-28T14:14:55.166Z,100376.25
2022-08-28T14:24:56.500Z,100372.88
2022-08-28T14:34:57.903Z,100363.78
2022-08-28T14:44:59.332Z,100349.81
2022-08-28T14:55:00.661Z,100352.75
2022-08-28T15:05:02.078Z,100347.63
2022-08-28T15:15:03.360Z,100350.34
2022-08-28T15:25:05.928Z,100339.84
2022-08-28T15:35:07.263Z,100329.22
2022-08-28T15:45:08.878Z,100329.59
2022-08-28T15:55:10.446Z,100331.66
2022-08-28T16:05:11.773Z,100340.09
2022-08-28T16:15:13.120Z,100330.44
2022-08-28T16:25:14.498Z,100325.00
2022-08-28T16:35:15.833Z,100331.78
2022-08-28T16:45:17.349Z,100324.94
2022-08-28T16:55:18.873Z,100334.72
2022-08-28T17:05:20.221Z,100322.28
2022-08-28T17:15:22.354Z,100320.19
2022-08-28T17:25:23.753Z,100338.03
2022-08-28T17:35:25.154Z,100331.28
2022-08-28T17:45:26.505Z,100337.09
2022-08-28T17:55:27.898Z,100347.69
2022-08-28T18:05:29.229Z,100354.84
2022-08-28T18:15:30.667Z,100366.28
2022-08-28T18:25:50.762Z,100382.91
2022-08-28T18:35:52.436Z,100383.97
2022-08-28T18:45:53.786Z,100401.34
2022-08-28T18:55:55.227Z,100411.75
2022-08-28T19:05:57.375Z,100421.97
2022-08-28T19:15:58.771Z,100434.16
2022-08-28T19:26:00.163Z,100443.81
2022-08-28T19:36:02.334Z,100453.25
2022-08-28T19:46:03.762Z,100465.34
2022-08-28T19:56:05.177Z,100472.03
2022-08-28T20:06:06.564Z,100488.75
2022-08-28T20:16:08.033Z,100484.50
2022-08-28T20:26:09.363Z,100478.91
2022-08-28T20:36:16.315Z,100491.22
2022-08-28T20:46:23.161Z,100495.63
2022-08-28T20:56:24.521Z,100502.78
2022-08-28T21:06:25.856Z,100516.25
2022-08-28T21:16:27.288Z,100515.19
2022-08-28T21:26:28.640Z,100520.47
2022-08-28T21:36:29.961Z,100521.94
2022-08-28T21:46:31.380Z,100527.97
2022-08-28T21:56:32.760Z,100539.56
2022-08-28T22:06:34.083Z,100545.69
2022-08-28T22:16:35.459Z,100549.41
2022-08-28T22:26:36.824Z,100546.44
2022-08-28T22:36:38.323Z,100548.97
2022-08-28T22:46:39.627Z,100555.00
2022-08-28T22:56:42.228Z,100555.81
2022-08-28T23:06:43.570Z,100575.91
2022-08-28T23:16:44.959Z,100553.75
2022-08-28T23:26:46.706Z,100566.06
2022-08-28T23:36:48.039Z,100564.41
2022-08-28T23:46:49.377Z,100569.34
2022-08-28T23:56:51.119Z,100574.06
